Manseau, Canada
Current Conditions -  °F | °C
As of 8:00 PM on Saturday 22 Nov 2014 (Local Time) from CYRQ Reporting Station
Overcast Overcast  
Wind Chill: 22°   Ceiling: 2400
Heat Index: 32°   Visibility: 9mi
Dew Point: 28°   Wind: 15mph
Humidity: 87%   Direction: 210°SSW
Pressure: 29.85"   Gusts: 24mph
Location:  46.37°N, 72.02°W
Report Text: CYRQ 230100Z AUTO 21013G21KT 9SM OVC024 M00/M02 A2985 RMK SLP112
Loading
Personal Weather Stations






























Interactive Weather Map New forecast layout! Learn more

10-Day Weather Forecast

Advertisements
Track Severe Weather on mobile